sensor_id;sensor_type;location;lat;lon;timestamp;pressure;altitude;pressure_sealevel;temperature;humidity
62103;BME280;48077;48.104;11.702;2023-08-17T00:01:53;95614.47;;;16.93;100.00
62103;BME280;48077;48.104;11.702;2023-08-17T00:07:40;95615.53;;;16.87;100.00
62103;BME280;48077;48.104;11.702;2023-08-17T00:10:04;95611.47;;;16.79;100.00
62103;BME280;48077;48.104;11.702;2023-08-17T00:12:27;95606.88;;;16.75;100.00
62103;BME280;48077;48.104;11.702;2023-08-17T00:14:52;95610.66;;;16.79;100.00
62103;BME280;48077;48.104;11.702;2023-08-17T00:17:15;95615.00;;;16.85;100.00
62103;BME280;48077;48.104;11.702;2023-08-17T00:19:38;95606.91;;;16.85;100.00
62103;BME280;48077;48.104;11.702;2023-08-17T00:22:02;95605.25;;;16.79;100.00
62103;BME280;48077;48.104;11.702;2023-08-17T00:24:25;95614.75;;;16.82;100.00
62103;BME280;48077;48.104;11.702;2023-08-17T00:26:49;95600.16;;;16.72;100.00
62103;BME280;48077;48.104;11.702;2023-08-17T00:29:12;95594.25;;;16.65;100.00
62103;BME280;48077;48.104;11.702;2023-08-17T00:31:38;95600.44;;;16.66;100.00
62103;BME280;48077;48.104;11.702;2023-08-17T00:34:01;95610.38;;;16.60;100.00
62103;BME280;48077;48.104;11.702;2023-08-17T00:36:24;95602.03;;;16.51;100.00
62103;BME280;48077;48.104;11.702;2023-08-17T00:38:48;95614.66;;;16.46;100.00
62103;BME280;48077;48.104;11.702;2023-08-17T00:41:11;95612.50;;;16.43;100.00
62103;BME280;48077;48.104;11.702;2023-08-17T00:43:35;95604.44;;;16.43;100.00
62103;BME280;48077;48.104;11.702;2023-08-17T00:45:58;95604.97;;;16.45;100.00
62103;BME280;48077;48.104;11.702;2023-08-17T00:48:22;95598.50;;;16.41;100.00
62103;BME280;48077;48.104;11.702;2023-08-17T00:50:47;95597.16;;;16.38;100.00
62103;BME280;48077;48.104;11.702;2023-08-17T00:53:11;95605.75;;;16.35;100.00
62103;BME280;48077;48.104;11.702;2023-08-17T00:55:36;95610.88;;;16.31;100.00
62103;BME280;48077;48.104;11.702;2023-08-17T00:57:59;95599.03;;;16.27;100.00
62103;BME280;48077;48.104;11.702;2023-08-17T01:00:27;95611.97;;;16.35;100.00
62103;BME280;48077;48.104;11.702;2023-08-17T01:02:50;95597.66;;;16.25;100.00
62103;BME280;48077;48.104;11.702;2023-08-17T01:05:14;95598.19;;;16.27;100.00
62103;BME280;48077;48.104;11.702;2023-08-17T01:07:37;95586.34;;;16.23;100.00
62103;BME280;48077;48.104;11.702;2023-08-17T01:10:02;95598.22;;;16.22;100.00
62103;BME280;48077;48.104;11.702;2023-08-17T01:12:29;95598.22;;;16.22;100.00
62103;BME280;48077;48.104;11.702;2023-08-17T01:17:42;95605.44;;;16.16;100.00
62103;BME280;48077;48.104;11.702;2023-08-17T01:20:08;95611.91;;;16.15;100.00
62103;BME280;48077;48.104;11.702;2023-08-17T01:22:36;95605.72;;;16.14;100.00
62103;BME280;48077;48.104;11.702;2023-08-17T01:25:00;95616.25;;;16.21;100.00
62103;BME280;48077;48.104;11.702;2023-08-17T01:27:24;95613.28;;;16.28;100.00
62103;BME280;48077;48.104;11.702;2023-08-17T01:29:47;95608.72;;;16.38;100.00
62103;BME280;48077;48.104;11.702;2023-08-17T01:32:27;95619.75;;;16.37;100.00
62103;BME280;48077;48.104;11.702;2023-08-17T01:35:03;95624.06;;;16.33;100.00
62103;BME280;48077;48.104;11.702;2023-08-17T01:37:31;95610.31;;;16.24;100.00
62103;BME280;48077;48.104;11.702;2023-08-17T01:39:57;95607.63;;;16.24;100.00
62103;BME280;48077;48.104;11.702;2023-08-17T01:42:23;95598.19;;;16.16;100.00
62103;BME280;48077;48.104;11.702;2023-08-17T01:44:47;95603.31;;;16.13;100.00
62103;BME280;48077;48.104;11.702;2023-08-17T01:47:10;95598.19;;;16.06;100.00
62103;BME280;48077;48.104;11.702;2023-08-17T01:49:34;95587.13;;;16.03;100.00
62103;BME280;48077;48.104;11.702;2023-08-17T01:52:00;95600.03;;;16.01;100.00
62103;BME280;48077;48.104;11.702;2023-08-17T01:54:24;95599.50;;;16.04;100.00
62103;BME280;48077;48.104;11.702;2023-08-17T01:56:47;95601.13;;;16.10;100.00
62103;BME280;48077;48.104;11.702;2023-08-17T01:59:10;95594.66;;;16.06;100.00
62103;BME280;48077;48.104;11.702;2023-08-17T02:01:34;95594.66;;;16.06;100.00
62103;BME280;48077;48.104;11.702;2023-08-17T02:03:57;95583.34;;;15.98;100.00
62103;BME280;48077;48.104;11.702;2023-08-17T02:06:23;95573.38;;;15.94;100.00
62103;BME280;48077;48.104;11.702;2023-08-17T02:08:46;95583.59;;;15.97;100.00
62103;BME280;48077;48.104;11.702;2023-08-17T02:11:09;95576.34;;;15.97;100.00
62103;BME280;48077;48.104;11.702;2023-08-17T02:13:33;95564.75;;;15.87;100.00
62103;BME280;48077;48.104;11.702;2023-08-17T02:15:56;95581.72;;;15.97;100.00
62103;BME280;48077;48.104;11.702;2023-08-17T02:18:20;95583.06;;;15.95;100.00
62103;BME280;48077;48.104;11.702;2023-08-17T02:20:43;95573.91;;;15.86;100.00
62103;BME280;48077;48.104;11.702;2023-08-17T02:23:07;95573.06;;;15.85;100.00
62103;BME280;48077;48.104;11.702;2023-08-17T02:25:30;95567.94;;;15.73;100.00
62103;BME280;48077;48.104;11.702;2023-08-17T02:27:58;95567.13;;;15.78;100.00
62103;BME280;48077;48.104;11.702;2023-08-17T02:30:23;95566.06;;;15.79;100.00
62103;BME280;48077;48.104;11.702;2023-08-17T02:32:46;95560.69;;;15.79;100.00
62103;BME280;48077;48.104;11.702;2023-08-17T02:35:10;95554.44;;;15.68;100.00
62103;BME280;48077;48.104;11.702;2023-08-17T02:37:33;95557.97;;;15.74;100.00
62103;BME280;48077;48.104;11.702;2023-08-17T02:39:57;95558.50;;;15.71;100.00
62103;BME280;48077;48.104;11.702;2023-08-17T02:42:20;95551.72;;;15.63;100.00
62103;BME280;48077;48.104;11.702;2023-08-17T02:44:43;95560.63;;;15.69;100.00
62103;BME280;48077;48.104;11.702;2023-08-17T02:47:07;95559.53;;;15.70;100.00
62103;BME280;48077;48.104;11.702;2023-08-17T02:49:30;95560.34;;;15.70;100.00
62103;BME280;48077;48.104;11.702;2023-08-17T02:51:53;95551.72;;;15.63;100.00
62103;BME280;48077;48.104;11.702;2023-08-17T02:54:17;95549.00;;;15.58;100.00
62103;BME280;48077;48.104;11.702;2023-08-17T02:56:40;95559.53;;;15.65;100.00
62103;BME280;48077;48.104;11.702;2023-08-17T02:59:04;95567.88;;;15.63;100.00
62103;BME280;48077;48.104;11.702;2023-08-17T03:01:27;95571.59;;;15.62;100.00
62103;BME280;48077;48.104;11.702;2023-08-17T03:03:52;95567.59;;;15.65;100.00
62103;BME280;48077;48.104;11.702;2023-08-17T03:06:15;95567.31;;;15.66;100.00
62103;BME280;48077;48.104;11.702;2023-08-17T03:08:38;95560.09;;;15.67;100.00
62103;BME280;48077;48.104;11.702;2023-08-17T03:11:02;95563.59;;;15.67;100.00
62103;BME280;48077;48.104;11.702;2023-08-17T03:13:25;95560.13;;;15.72;100.00
62103;BME280;48077;48.104;11.702;2023-08-17T03:15:49;95559.63;;;15.75;100.00
62103;BME280;48077;48.104;11.702;2023-08-17T03:18:12;95567.94;;;15.78;100.00
62103;BME280;48077;48.104;11.702;2023-08-17T03:20:35;95575.75;;;15.75;100.00
62103;BME280;48077;48.104;11.702;2023-08-17T03:22:59;95565.47;;;15.67;100.00
62103;BME280;48077;48.104;11.702;2023-08-17T03:25:22;95575.13;;;15.63;100.00
62103;BME280;48077;48.104;11.702;2023-08-17T03:27:46;95581.81;;;15.60;100.00
62103;BME280;48077;48.104;11.702;2023-08-17T03:30:09;95562.69;;;15.51;100.00
62103;BME280;48077;48.104;11.702;2023-08-17T03:32:32;95573.47;;;15.56;100.00
62103;BME280;48077;48.104;11.702;2023-08-17T03:34:56;95579.41;;;15.58;100.00
62103;BME280;48077;48.104;11.702;2023-08-17T03:37:19;95569.69;;;15.52;100.00
62103;BME280;48077;48.104;11.702;2023-08-17T03:39:43;95577.22;;;15.55;100.00
62103;BME280;48077;48.104;11.702;2023-08-17T03:42:06;95570.50;;;15.53;100.00
62103;BME280;48077;48.104;11.702;2023-08-17T03:44:29;95579.91;;;15.55;100.00
62103;BME280;48077;48.104;11.702;2023-08-17T03:46:53;95581.00;;;15.54;100.00
62103;BME280;48077;48.104;11.702;2023-08-17T03:49:16;95590.66;;;15.50;100.00
62103;BME280;48077;48.104;11.702;2023-08-17T03:51:40;95592.50;;;15.50;100.00
62103;BME280;48077;48.104;11.702;2023-08-17T03:54:03;95587.69;;;15.47;100.00
62103;BME280;48077;48.104;11.702;2023-08-17T03:56:29;95586.59;;;15.48;100.00
62103;BME280;48077;48.104;11.702;2023-08-17T03:58:53;95584.19;;;15.46;100.00
62103;BME280;48077;48.104;11.702;2023-08-17T04:01:16;95580.94;;;15.44;100.00
62103;BME280;48077;48.104;11.702;2023-08-17T04:03:40;95590.09;;;15.48;100.00
62103;BME280;48077;48.104;11.702;2023-08-17T04:06:06;95589.56;;;15.51;100.00
62103;BME280;48077;48.104;11.702;2023-08-17T04:08:30;95592.81;;;15.53;100.00
62103;BME280;48077;48.104;11.702;2023-08-17T04:10:53;95598.97;;;15.49;100.00
62103;BME280;48077;48.104;11.702;2023-08-17T04:13:17;95595.97;;;15.40;100.00
62103;BME280;48077;48.104;11.702;2023-08-17T04:15:40;95595.44;;;15.43;100.00
62103;BME280;48077;48.104;11.702;2023-08-17T04:18:03;95600.88;;;15.48;100.00
62103;BME280;48077;48.104;11.702;2023-08-17T04:20:27;95593.25;;;15.35;100.00
62103;BME280;48077;48.104;11.702;2023-08-17T04:22:50;95609.38;;;15.35;100.00
62103;BME280;48077;48.104;11.702;2023-08-17T04:25:13;95598.56;;;15.25;100.00
62103;BME280;48077;48.104;11.702;2023-08-17T04:27:39;95608.56;;;15.34;100.00
62103;BME280;48077;48.104;11.702;2023-08-17T04:30:03;95609.16;;;15.42;100.00
62103;BME280;48077;48.104;11.702;2023-08-17T04:32:26;95605.88;;;15.34;100.00
62103;BME280;48077;48.104;11.702;2023-08-17T04:34:50;95608.56;;;15.34;100.00
62103;BME280;48077;48.104;11.702;2023-08-17T04:37:13;95607.47;;;15.30;100.00
62103;BME280;48077;48.104;11.702;2023-08-17T04:39:36;95618.53;;;15.39;100.00
62103;BME280;48077;48.104;11.702;2023-08-17T04:42:00;95616.13;;;15.43;100.00
62103;BME280;48077;48.104;11.702;2023-08-17T04:44:23;95622.38;;;15.48;100.00
62103;BME280;48077;48.104;11.702;2023-08-17T04:46:47;95612.72;;;15.52;100.00
62103;BME280;48077;48.104;11.702;2023-08-17T04:49:10;95619.13;;;15.51;100.00
62103;BME280;48077;48.104;11.702;2023-08-17T04:51:34;95614.81;;;15.45;100.00
62103;BME280;48077;48.104;11.702;2023-08-17T04:53:57;95618.34;;;15.51;100.00
62103;BME280;48077;48.104;11.702;2023-08-17T04:56:20;95613.50;;;15.53;100.00
62103;BME280;48077;48.104;11.702;2023-08-17T04:58:44;95610.28;;;15.56;100.00
62103;BME280;48077;48.104;11.702;2023-08-17T05:01:07;95629.66;;;15.58;100.00
62103;BME280;48077;48.104;11.702;2023-08-17T05:03:30;95631.03;;;15.61;100.00
62103;BME280;48077;48.104;11.702;2023-08-17T05:05:54;95624.03;;;15.59;100.00
62103;BME280;48077;48.104;11.702;2023-08-17T05:08:17;95631.31;;;15.64;100.00
62103;BME280;48077;48.104;11.702;2023-08-17T05:10:41;95629.78;;;15.73;100.00
62103;BME280;48077;48.104;11.702;2023-08-17T05:13:04;95632.22;;;15.80;100.00
62103;BME280;48077;48.104;11.702;2023-08-17T05:15:27;95636.03;;;15.89;100.00
62103;BME280;48077;48.104;11.702;2023-08-17T05:17:51;95630.41;;;15.96;100.00
62103;BME280;48077;48.104;11.702;2023-08-17T05:20:14;95629.63;;;16.06;100.00
62103;BME280;48077;48.104;11.702;2023-08-17T05:22:38;95628.06;;;16.15;100.00
62103;BME280;48077;48.104;11.702;2023-08-17T05:25:01;95627.25;;;16.19;100.00
62103;BME280;48077;48.104;11.702;2023-08-17T05:27:25;95630.25;;;16.28;100.00
62103;BME280;48077;48.104;11.702;2023-08-17T05:29:48;95631.91;;;16.39;100.00
62103;BME280;48077;48.104;11.702;2023-08-17T05:32:11;95637.28;;;16.50;100.00
62103;BME280;48077;48.104;11.702;2023-08-17T05:34:35;95636.25;;;16.61;100.00
62103;BME280;48077;48.104;11.702;2023-08-17T05:36:58;95636.00;;;16.73;100.00
62103;BME280;48077;48.104;11.702;2023-08-17T05:39:21;95617.94;;;16.73;100.00
62103;BME280;48077;48.104;11.702;2023-08-17T05:41:45;95627.38;;;16.91;100.00
62103;BME280;48077;48.104;11.702;2023-08-17T05:44:08;95636.03;;;17.09;100.00
62103;BME280;48077;48.104;11.702;2023-08-17T05:46:33;95623.34;;;17.14;100.00
62103;BME280;48077;48.104;11.702;2023-08-17T05:48:56;95637.34;;;17.32;100.00
62103;BME280;48077;48.104;11.702;2023-08-17T05:51:21;95640.56;;;17.44;100.00
62103;BME280;48077;48.104;11.702;2023-08-17T05:53:45;95632.19;;;17.46;100.00
62103;BME280;48077;48.104;11.702;2023-08-17T05:56:08;95645.91;;;17.59;100.00
62103;BME280;48077;48.104;11.702;2023-08-17T05:58:32;95632.72;;;17.63;100.00
62103;BME280;48077;48.104;11.702;2023-08-17T06:01:04;95635.34;;;17.78;100.00
62103;BME280;48077;48.104;11.702;2023-08-17T06:03:27;95624.03;;;17.82;100.00
62103;BME280;48077;48.104;11.702;2023-08-17T06:05:52;95625.09;;;17.91;100.00
62103;BME280;48077;48.104;11.702;2023-08-17T06:08:16;95639.63;;;18.00;100.00
62103;BME280;48077;48.104;11.702;2023-08-17T06:10:39;95636.91;;;18.05;100.00
62103;BME280;48077;48.104;11.702;2023-08-17T06:13:03;95645.78;;;18.11;100.00
62103;BME280;48077;48.104;11.702;2023-08-17T06:15:26;95644.41;;;18.18;100.00
62103;BME280;48077;48.104;11.702;2023-08-17T06:17:50;95639.25;;;18.27;100.00
62103;BME280;48077;48.104;11.702;2023-08-17T06:20:13;95634.91;;;18.31;100.00
62103;BME280;48077;48.104;11.702;2023-08-17T06:22:37;95645.88;;;18.45;100.00
62103;BME280;48077;48.104;11.702;2023-08-17T06:25:01;95636.13;;;18.49;100.00
62103;BME280;48077;48.104;11.702;2023-08-17T06:27:24;95649.84;;;18.63;100.00
62103;BME280;48077;48.104;11.702;2023-08-17T06:29:50;95644.91;;;18.70;100.00
62103;BME280;48077;48.104;11.702;2023-08-17T06:32:13;95645.69;;;18.76;100.00
62103;BME280;48077;48.104;11.702;2023-08-17T06:34:36;95641.91;;;18.82;100.00
62103;BME280;48077;48.104;11.702;2023-08-17T06:37:02;95651.31;;;18.90;100.00
62103;BME280;48077;48.104;11.702;2023-08-17T06:39:26;95634.28;;;18.89;100.00
62103;BME280;48077;48.104;11.702;2023-08-17T06:41:53;95647.97;;;19.03;100.00
62103;BME280;48077;48.104;11.702;2023-08-17T06:44:16;95647.09;;;19.13;100.00
62103;BME280;48077;48.104;11.702;2023-08-17T06:46:40;95643.81;;;19.16;100.00
62103;BME280;48077;48.104;11.702;2023-08-17T06:49:03;95649.66;;;19.28;100.00
62103;BME280;48077;48.104;11.702;2023-08-17T06:51:26;95654.72;;;19.35;100.00
62103;BME280;48077;48.104;11.702;2023-08-17T06:53:50;95653.59;;;19.41;100.00
62103;BME280;48077;48.104;11.702;2023-08-17T06:56:13;95657.31;;;19.50;100.00
62103;BME280;48077;48.104;11.702;2023-08-17T06:58:37;95652.94;;;19.54;100.00
62103;BME280;48077;48.104;11.702;2023-08-17T07:01:00;95655.81;;;19.63;100.00
62103;BME280;48077;48.104;11.702;2023-08-17T07:03:23;95660.31;;;19.73;100.00
62103;BME280;48077;48.104;11.702;2023-08-17T07:05:47;95656.19;;;19.80;100.00
62103;BME280;48077;48.104;11.702;2023-08-17T07:08:11;95658.78;;;19.91;100.00
62103;BME280;48077;48.104;11.702;2023-08-17T07:10:34;95655.47;;;19.99;100.00
62103;BME280;48077;48.104;11.702;2023-08-17T07:12:58;95653.53;;;19.99;100.00
62103;BME280;48077;48.104;11.702;2023-08-17T07:15:21;95652.41;;;20.06;100.00
62103;BME280;48077;48.104;11.702;2023-08-17T07:17:45;95657.69;;;20.16;100.00
62103;BME280;48077;48.104;11.702;2023-08-17T07:20:08;95665.78;;;20.21;100.00
62103;BME280;48077;48.104;11.702;2023-08-17T07:22:33;95654.56;;;20.28;100.00
62103;BME280;48077;48.104;11.702;2023-08-17T07:24:56;95655.31;;;20.33;100.00
62103;BME280;48077;48.104;11.702;2023-08-17T07:27:19;95658.91;;;20.48;100.00
62103;BME280;48077;48.104;11.702;2023-08-17T07:29:43;95650.66;;;20.58;100.00
62103;BME280;48077;48.104;11.702;2023-08-17T07:32:06;95659.16;;;20.70;98.67
62103;BME280;48077;48.104;11.702;2023-08-17T07:34:30;95654.72;;;20.79;97.86
62103;BME280;48077;48.104;11.702;2023-08-17T07:36:54;95650.59;;;20.82;96.78
62103;BME280;48077;48.104;11.702;2023-08-17T07:39:17;95659.38;;;20.93;96.90
62103;BME280;48077;48.104;11.702;2023-08-17T07:41:41;95658.50;;;20.97;95.96
62103;BME280;48077;48.104;11.702;2023-08-17T07:44:05;95654.41;;;21.00;95.05
62103;BME280;48077;48.104;11.702;2023-08-17T07:46:31;95667.72;;;21.15;94.80
62103;BME280;48077;48.104;11.702;2023-08-17T07:48:54;95676.22;;;21.28;93.65
62103;BME280;48077;48.104;11.702;2023-08-17T07:51:17;95669.00;;;21.37;92.57
62103;BME280;48077;48.104;11.702;2023-08-17T07:53:41;95668.84;;;21.47;90.67
62103;BME280;48077;48.104;11.702;2023-08-17T07:56:04;95657.41;;;21.50;90.20
62103;BME280;48077;48.104;11.702;2023-08-17T07:58:27;95660.56;;;21.71;90.26
62103;BME280;48077;48.104;11.702;2023-08-17T08:00:51;95661.25;;;21.77;89.87
62103;BME280;48077;48.104;11.702;2023-08-17T08:03:15;95657.06;;;21.85;89.77
62103;BME280;48077;48.104;11.702;2023-08-17T08:05:38;95648.81;;;21.90;89.45
62103;BME280;48077;48.104;11.702;2023-08-17T08:08:02;95649.44;;;22.00;88.91
62103;BME280;48077;48.104;11.702;2023-08-17T08:10:27;95652.25;;;22.09;88.81
62103;BME280;48077;48.104;11.702;2023-08-17T08:12:50;95640.16;;;22.15;87.17
62103;BME280;48077;48.104;11.702;2023-08-17T08:15:13;95652.94;;;22.29;84.23
62103;BME280;48077;48.104;11.702;2023-08-17T08:17:37;95644.38;;;22.35;84.87
62103;BME280;48077;48.104;11.702;2023-08-17T08:20:01;95649.94;;;22.44;83.73
62103;BME280;48077;48.104;11.702;2023-08-17T08:22:24;95653.81;;;22.52;nan
62103;BME280;48077;48.104;11.702;2023-08-17T08:24:47;95641.56;;;22.54;82.21
62103;BME280;48077;48.104;11.702;2023-08-17T08:27:11;95653.19;;;22.69;81.87
62103;BME280;48077;48.104;11.702;2023-08-17T08:29:34;95649.56;;;22.73;81.35
62103;BME280;48077;48.104;11.702;2023-08-17T08:31:57;95647.22;;;22.80;80.60
62103;BME280;48077;48.104;11.702;2023-08-17T08:34:22;95646.78;;;22.87;80.42
62103;BME280;48077;48.104;11.702;2023-08-17T08:36:46;95644.63;;;22.98;79.81
62103;BME280;48077;48.104;11.702;2023-08-17T08:39:10;95651.78;;;23.08;79.44
62103;BME280;48077;48.104;11.702;2023-08-17T08:41:35;95641.84;;;23.03;78.90
62103;BME280;48077;48.104;11.702;2023-08-17T08:44:00;95650.44;;;23.19;78.65
62103;BME280;48077;48.104;11.702;2023-08-17T08:46:26;95645.34;;;23.26;78.40
62103;BME280;48077;48.104;11.702;2023-08-17T08:48:50;95653.47;;;23.40;79.21
62103;BME280;48077;48.104;11.702;2023-08-17T08:51:16;95640.34;;;23.42;77.28
62103;BME280;48077;48.104;11.702;2023-08-17T08:53:45;95655.03;;;23.63;76.36
62103;BME280;48077;48.104;11.702;2023-08-17T08:56:11;95657.59;;;23.69;73.61
62103;BME280;48077;48.104;11.702;2023-08-17T08:58:36;95639.03;;;23.71;74.20
62103;BME280;48077;48.104;11.702;2023-08-17T09:01:00;95645.06;;;23.81;74.91
62103;BME280;48077;48.104;11.702;2023-08-17T09:03:25;95642.72;;;23.97;73.97
62103;BME280;48077;48.104;11.702;2023-08-17T09:05:50;95638.59;;;24.09;73.70
62103;BME280;48077;48.104;11.702;2023-08-17T09:08:15;95627.84;;;24.12;73.10
62103;BME280;48077;48.104;11.702;2023-08-17T09:10:39;95638.03;;;24.38;73.16
62103;BME280;48077;48.104;11.702;2023-08-17T09:13:02;95634.41;;;24.51;70.95
62103;BME280;48077;48.104;11.702;2023-08-17T09:15:26;95633.94;;;24.67;70.90
62103;BME280;48077;48.104;11.702;2023-08-17T09:17:50;95640.53;;;24.74;70.26
62103;BME280;48077;48.104;11.702;2023-08-17T09:23:03;95634.28;;;24.82;70.45
62103;BME280;48077;48.104;11.702;2023-08-17T09:25:27;95633.78;;;24.89;69.54
62103;BME280;48077;48.104;11.702;2023-08-17T09:27:50;95630.56;;;24.96;69.31
62103;BME280;48077;48.104;11.702;2023-08-17T09:30:13;95625.44;;;25.12;69.75
62103;BME280;48077;48.104;11.702;2023-08-17T09:32:37;95627.06;;;25.21;69.79
62103;BME280;48077;48.104;11.702;2023-08-17T09:35:01;95629.00;;;25.30;69.31
62103;BME280;48077;48.104;11.702;2023-08-17T09:37:26;95617.72;;;25.31;68.69
62103;BME280;48077;48.104;11.702;2023-08-17T09:39:50;95624.91;;;25.53;67.14
62103;BME280;48077;48.104;11.702;2023-08-17T09:42:14;95624.22;;;25.74;66.06
62103;BME280;48077;48.104;11.702;2023-08-17T09:44:39;95619.50;;;25.83;65.71
62103;BME280;48077;48.104;11.702;2023-08-17T09:47:02;95619.97;;;25.94;62.70
62103;BME280;48077;48.104;11.702;2023-08-17T09:49:31;95619.81;;;25.99;62.24
62103;BME280;48077;48.104;11.702;2023-08-17T09:51:59;95622.53;;;25.99;62.74
62103;BME280;48077;48.104;11.702;2023-08-17T09:54:23;95620.72;;;26.12;63.06
62103;BME280;48077;48.104;11.702;2023-08-17T09:56:49;95623.22;;;26.25;63.84
62103;BME280;48077;48.104;11.702;2023-08-17T09:59:13;95619.03;;;26.49;60.31
62103;BME280;48077;48.104;11.702;2023-08-17T10:01:37;95616.75;;;26.60;59.71
62103;BME280;48077;48.104;11.702;2023-08-17T10:04:01;95618.75;;;26.72;59.76
62103;BME280;48077;48.104;11.702;2023-08-17T10:06:26;95621.03;;;26.91;59.07
62103;BME280;48077;48.104;11.702;2023-08-17T10:08:52;95617.00;;;27.09;58.26
62103;BME280;48077;48.104;11.702;2023-08-17T10:11:21;95608.59;;;27.14;57.07
62103;BME280;48077;48.104;11.702;2023-08-17T10:14:09;95601.94;;;27.24;57.08
62103;BME280;48077;48.104;11.702;2023-08-17T10:16:44;95601.75;;;27.41;55.69
62103;BME280;48077;48.104;11.702;2023-08-17T10:21:56;95606.16;;;27.67;55.75
62103;BME280;48077;48.104;11.702;2023-08-17T10:24:20;95606.84;;;27.76;55.55
62103;BME280;48077;48.104;11.702;2023-08-17T10:26:44;95597.41;;;27.86;55.92
62103;BME280;48077;48.104;11.702;2023-08-17T10:29:08;95601.31;;;28.10;55.24
62103;BME280;48077;48.104;11.702;2023-08-17T10:31:34;95600.25;;;28.26;54.51
62103;BME280;48077;48.104;11.702;2023-08-17T10:33:58;95593.84;;;28.35;55.60
62103;BME280;48077;48.104;11.702;2023-08-17T10:36:22;95597.66;;;28.55;54.79
62103;BME280;48077;48.104;11.702;2023-08-17T10:38:46;95602.84;;;28.72;53.82
62103;BME280;48077;48.104;11.702;2023-08-17T10:41:14;95590.94;;;28.80;52.75
62103;BME280;48077;48.104;11.702;2023-08-17T10:43:54;95589.09;;;28.84;53.03
62103;BME280;48077;48.104;11.702;2023-08-17T10:46:17;95592.41;;;28.90;54.13
62103;BME280;48077;48.104;11.702;2023-08-17T10:48:43;95594.75;;;29.04;53.48
62103;BME280;48077;48.104;11.702;2023-08-17T10:51:08;95592.91;;;29.08;55.30
62103;BME280;48077;48.104;11.702;2023-08-17T10:53:36;95579.88;;;29.17;52.76
62103;BME280;48077;48.104;11.702;2023-08-17T10:56:06;95589.28;;;29.32;54.79
62103;BME280;48077;48.104;11.702;2023-08-17T10:58:30;95593.53;;;29.30;54.13
62103;BME280;48077;48.104;11.702;2023-08-17T11:00:55;95584.06;;;29.43;54.68
62103;BME280;48077;48.104;11.702;2023-08-17T11:03:22;95586.69;;;29.67;53.46
62103;BME280;48077;48.104;11.702;2023-08-17T11:08:35;95595.94;;;29.91;53.13
62103;BME280;48077;48.104;11.702;2023-08-17T11:11:10;95588.47;;;30.08;51.51
62103;BME280;48077;48.104;11.702;2023-08-17T11:13:44;95587.94;;;30.18;51.59
62103;BME280;48077;48.104;11.702;2023-08-17T11:16:09;95587.31;;;30.40;49.98
62103;BME280;48077;48.104;11.702;2023-08-17T11:18:33;95589.22;;;30.56;50.66
62103;BME280;48077;48.104;11.702;2023-08-17T11:20:57;95586.97;;;30.61;52.42
62103;BME280;48077;48.104;11.702;2023-08-17T11:23:22;95574.00;;;30.62;51.91
62103;BME280;48077;48.104;11.702;2023-08-17T11:25:46;95581.06;;;30.79;51.89
62103;BME280;48077;48.104;11.702;2023-08-17T11:28:09;95578.38;;;30.82;50.62
62103;BME280;48077;48.104;11.702;2023-08-17T11:30:33;95579.03;;;30.76;52.12
62103;BME280;48077;48.104;11.702;2023-08-17T11:32:58;95576.28;;;30.76;50.68
62103;BME280;48077;48.104;11.702;2023-08-17T11:35:22;95581.44;;;30.77;50.25
62103;BME280;48077;48.104;11.702;2023-08-17T11:37:45;95574.44;;;30.64;52.66
62103;BME280;48077;48.104;11.702;2023-08-17T11:40:12;95563.97;;;30.34;51.27
62103;BME280;48077;48.104;11.702;2023-08-17T11:42:36;95564.34;;;30.33;52.90
62103;BME280;48077;48.104;11.702;2023-08-17T11:45:00;95568.06;;;30.40;52.61
62103;BME280;48077;48.104;11.702;2023-08-17T11:47:23;95575.56;;;30.79;52.23
62103;BME280;48077;48.104;11.702;2023-08-17T11:49:49;95567.03;;;31.03;52.19
62103;BME280;48077;48.104;11.702;2023-08-17T11:52:13;95571.56;;;31.35;50.77
62103;BME280;48077;48.104;11.702;2023-08-17T11:54:40;95557.50;;;31.40;49.99
62103;BME280;48077;48.104;11.702;2023-08-17T11:57:04;95560.91;;;31.76;47.43
62103;BME280;48077;48.104;11.702;2023-08-17T11:59:27;95552.94;;;31.71;49.54
62103;BME280;48077;48.104;11.702;2023-08-17T12:01:55;95560.13;;;31.98;48.63
62103;BME280;48077;48.104;11.702;2023-08-17T12:04:21;95560.91;;;32.22;45.45
62103;BME280;48077;48.104;11.702;2023-08-17T12:06:45;95543.50;;;32.18;46.89
62103;BME280;48077;48.104;11.702;2023-08-17T12:09:08;95549.00;;;32.18;46.28
62103;BME280;48077;48.104;11.702;2023-08-17T12:11:32;95547.78;;;32.42;46.52
62103;BME280;48077;48.104;11.702;2023-08-17T12:13:55;95547.63;;;32.58;46.07
62103;BME280;48077;48.104;11.702;2023-08-17T12:16:22;95542.88;;;32.55;46.93
62103;BME280;48077;48.104;11.702;2023-08-17T12:18:50;95545.34;;;32.63;45.93
62103;BME280;48077;48.104;11.702;2023-08-17T12:21:14;95549.13;;;32.82;43.64
62103;BME280;48077;48.104;11.702;2023-08-17T12:23:38;95524.56;;;32.73;42.61
62103;BME280;48077;48.104;11.702;2023-08-17T12:26:02;95539.78;;;32.90;42.79
62103;BME280;48077;48.104;11.702;2023-08-17T12:28:26;95536.28;;;32.97;43.61
62103;BME280;48077;48.104;11.702;2023-08-17T12:30:57;95510.75;;;33.07;41.75
62103;BME280;48077;48.104;11.702;2023-08-17T12:33:21;95523.56;;;33.22;42.00
62103;BME280;48077;48.104;11.702;2023-08-17T12:35:44;95528.63;;;33.13;40.27
62103;BME280;48077;48.104;11.702;2023-08-17T12:38:08;95506.09;;;32.77;40.52
62103;BME280;48077;48.104;11.702;2023-08-17T12:40:31;95518.13;;;32.96;43.39
62103;BME280;48077;48.104;11.702;2023-08-17T12:42:54;95514.25;;;33.04;42.79